createdAt,value
2019-01-18T00:00:05.435Z,10.00
2019-01-18T00:02:34.087Z,11.93
2019-01-18T00:05:02.886Z,11.10
2019-01-18T00:07:31.277Z,18.92
2019-01-18T00:09:59.673Z,18.17
2019-01-18T00:12:28.059Z,10.65
2019-01-18T00:14:56.465Z,12.37
2019-01-18T00:17:25.107Z,22.48
2019-01-18T00:19:53.512Z,11.85
2019-01-18T00:22:22.187Z,12.13
2019-01-18T00:24:50.587Z,11.22
2019-01-18T00:27:18.971Z,10.98
2019-01-18T00:29:47.377Z,13.80
2019-01-18T00:32:16.110Z,13.03
2019-01-18T00:34:44.504Z,14.83
2019-01-18T00:37:13.162Z,12.60
2019-01-18T00:39:41.560Z,24.23
2019-01-18T00:42:10.012Z,16.57
2019-01-18T00:44:38.404Z,11.93
2019-01-18T00:47:06.785Z,9.60
2019-01-18T00:49:54.525Z,15.03
2019-01-18T00:52:22.914Z,16.17
2019-01-18T00:55:10.972Z,12.95
2019-01-18T00:57:39.482Z,9.88
2019-01-18T01:00:28.596Z,12.58
2019-01-18T01:03:37.149Z,16.12
2019-01-18T01:06:05.538Z,19.05
2019-01-18T01:08:33.937Z,16.10
2019-01-18T01:11:02.325Z,13.13
2019-01-18T01:13:31.023Z,20.00
2019-01-18T01:15:59.409Z,13.35
2019-01-18T01:18:27.806Z,14.87
2019-01-18T01:20:56.261Z,11.70
2019-01-18T01:23:24.657Z,15.80
2019-01-18T01:25:53.041Z,14.78
2019-01-18T01:28:21.440Z,16.42
2019-01-18T01:30:49.899Z,14.75
2019-01-18T01:33:18.296Z,19.82
2019-01-18T01:35:46.943Z,15.28
2019-01-18T01:38:15.630Z,13.30
2019-01-18T01:40:44.019Z,12.60
2019-01-18T01:43:12.415Z,23.77
2019-01-18T01:45:40.803Z,14.70
2019-01-18T01:48:09.270Z,11.85
2019-01-18T01:50:37.723Z,23.75
2019-01-18T01:53:06.517Z,14.07
2019-01-18T01:55:35.197Z,13.98
2019-01-18T02:00:39.049Z,16.40
2019-01-18T02:03:07.513Z,21.35
2019-01-18T02:05:36.200Z,13.55
2019-01-18T02:08:04.727Z,14.58
2019-01-18T02:10:33.112Z,17.77
2019-01-18T02:13:01.506Z,10.50
2019-01-18T02:15:29.888Z,18.00
2019-01-18T02:17:58.280Z,19.20
2019-01-18T02:20:26.660Z,21.00
2019-01-18T02:22:55.123Z,21.12
2019-01-18T02:25:23.581Z,14.40
2019-01-18T02:27:52.044Z,19.17
2019-01-18T02:31:00.335Z,12.37
2019-01-18T02:33:29.010Z,14.73
2019-01-18T02:35:57.392Z,14.28
2019-01-18T02:38:25.792Z,12.60
2019-01-18T02:41:13.812Z,16.77
2019-01-18T02:43:42.208Z,13.60
2019-01-18T02:46:10.587Z,23.67
2019-01-18T02:48:39.267Z,17.48
2019-01-18T02:51:07.938Z,19.50
2019-01-18T02:53:36.345Z,21.90
2019-01-18T02:56:44.893Z,16.27
2019-01-18T02:59:13.270Z,15.50
2019-01-18T03:01:41.671Z,18.37
2019-01-18T03:04:10.056Z,11.65
2019-01-18T03:06:38.508Z,16.07
2019-01-18T03:09:09.403Z,10.98
2019-01-18T03:11:38.129Z,15.25
2019-01-18T03:14:06.519Z,14.07
2019-01-18T03:16:35.196Z,11.40
2019-01-18T03:19:03.571Z,13.60
2019-01-18T03:21:31.968Z,13.95
2019-01-18T03:24:00.346Z,18.92
2019-01-18T03:26:28.752Z,23.10
2019-01-18T03:28:57.165Z,28.70
2019-01-18T03:31:25.545Z,15.68
2019-01-18T03:33:53.930Z,17.92
2019-01-18T03:36:22.635Z,16.93
2019-01-18T03:38:51.319Z,20.70
2019-01-18T03:41:19.728Z,13.58
2019-01-18T03:43:48.122Z,23.42
2019-01-18T03:46:16.523Z,19.90
2019-01-18T03:48:44.913Z,21.05
2019-01-18T03:51:13.310Z,19.85
2019-01-18T03:53:41.700Z,18.23
2019-01-18T03:56:10.101Z,17.10
2019-01-18T03:58:38.538Z,18.32
2019-01-18T04:01:06.941Z,29.27
2019-01-18T04:03:35.334Z,17.85
2019-01-18T04:06:03.811Z,16.30
2019-01-18T04:08:32.194Z,24.20
2019-01-18T04:11:01.252Z,17.37
2019-01-18T04:13:29.654Z,18.67
2019-01-18T04:15:58.331Z,11.85
2019-01-18T04:18:26.736Z,14.60
2019-01-18T04:20:55.131Z,12.37
2019-01-18T04:23:23.777Z,13.72
2019-01-18T04:25:52.182Z,21.20
2019-01-18T04:28:20.861Z,18.52
2019-01-18T04:30:49.261Z,14.18
2019-01-18T04:33:17.642Z,14.80
2019-01-18T04:35:46.048Z,15.28
2019-01-18T04:38:14.433Z,19.62
2019-01-18T04:40:43.146Z,24.02
2019-01-18T04:43:11.549Z,18.02
2019-01-18T04:45:39.941Z,20.65
2019-01-18T04:48:08.695Z,16.85
2019-01-18T04:50:37.340Z,19.60
2019-01-18T04:53:06.067Z,23.75
2019-01-18T04:55:34.459Z,23.42
2019-01-18T04:58:03.129Z,20.85
2019-01-18T05:00:32.021Z,16.48
2019-01-18T05:03:00.370Z,18.12
2019-01-18T05:05:28.834Z,18.10
2019-01-18T05:07:57.221Z,21.77
2019-01-18T05:10:27.565Z,17.30
2019-01-18T05:12:56.271Z,14.65
2019-01-18T05:15:27.356Z,17.50
2019-01-18T05:17:55.754Z,14.50
2019-01-18T05:20:24.154Z,20.77
2019-01-18T05:22:52.537Z,21.55
2019-01-18T05:25:21.232Z,16.37
2019-01-18T05:27:49.919Z,14.40
2019-01-18T05:30:21.052Z,17.37
2019-01-18T05:32:50.068Z,17.48
2019-01-18T05:35:18.840Z,17.12
2019-01-18T05:37:47.299Z,18.75
2019-01-18T05:40:20.759Z,19.02
2019-01-18T05:42:49.484Z,19.95
2019-01-18T05:45:19.728Z,17.60
2019-01-18T05:47:48.116Z,19.02
2019-01-18T05:50:19.397Z,19.23
2019-01-18T05:52:47.791Z,20.75
2019-01-18T05:55:16.257Z,20.60
2019-01-18T05:57:44.713Z,15.05
2019-01-18T06:00:17.807Z,19.98
2019-01-18T06:02:46.207Z,20.50
2019-01-18T06:05:17.519Z,19.82
2019-01-18T06:07:45.973Z,19.98
2019-01-18T06:10:14.391Z,20.00
2019-01-18T06:12:42.782Z,24.87
2019-01-18T06:15:11.543Z,20.90
2019-01-18T06:17:39.935Z,21.82
2019-01-18T06:20:14.058Z,17.52
2019-01-18T06:22:42.458Z,21.00
2019-01-18T06:25:11.030Z,20.52
2019-01-18T06:27:39.680Z,22.73
2019-01-18T06:30:11.134Z,36.63
2019-01-18T06:32:39.533Z,23.52
2019-01-18T06:35:08.511Z,28.65
2019-01-18T06:37:36.903Z,25.43
2019-01-18T06:40:08.365Z,30.72
2019-01-18T06:42:36.757Z,31.27
2019-01-18T06:45:08.778Z,33.90
2019-01-18T06:47:37.181Z,27.95
2019-01-18T06:50:11.146Z,43.68
2019-01-18T06:52:39.557Z,29.70
2019-01-18T06:55:10.302Z,33.23
2019-01-18T06:57:38.754Z,26.97
2019-01-18T07:00:25.313Z,26.87
2019-01-18T07:02:53.709Z,24.30
2019-01-18T07:05:22.116Z,28.90
2019-01-18T07:07:50.808Z,33.73
2019-01-18T07:10:21.806Z,35.25
2019-01-18T07:12:50.370Z,25.27
2019-01-18T07:15:18.890Z,27.75
2019-01-18T07:17:47.361Z,25.40
2019-01-18T07:20:17.694Z,31.73
2019-01-18T07:22:46.540Z,27.98
2019-01-18T07:25:26.614Z,32.17
2019-01-18T07:27:55.356Z,30.30
2019-01-18T07:30:32.047Z,36.08
2019-01-18T07:33:00.465Z,29.25
2019-01-18T07:35:28.920Z,35.40
2019-01-18T07:37:57.310Z,30.80
2019-01-18T07:40:26.211Z,31.02
2019-01-18T07:42:55.056Z,37.53
2019-01-18T07:45:25.996Z,28.25
2019-01-18T07:47:54.554Z,29.72
2019-01-18T07:50:22.939Z,26.45
2019-01-18T07:52:51.421Z,29.40
2019-01-18T07:55:20.523Z,25.68
2019-01-18T07:57:49.026Z,24.43
2019-01-18T08:00:20.100Z,34.27
2019-01-18T08:02:48.511Z,33.38
2019-01-18T08:05:17.243Z,25.43
2019-01-18T08:07:45.778Z,37.33
2019-01-18T08:10:16.761Z,25.35
2019-01-18T08:12:45.151Z,30.40
2019-01-18T08:15:19.212Z,26.15
2019-01-18T08:17:47.607Z,27.30
2019-01-18T08:20:18.937Z,28.15
2019-01-18T08:22:47.481Z,28.35
2019-01-18T08:25:16.311Z,22.20
2019-01-18T08:27:44.784Z,25.62
2019-01-18T08:30:24.788Z,51.77
2019-01-18T08:32:53.201Z,24.25
2019-01-18T08:35:23.073Z,23.47
2019-01-18T08:37:51.533Z,22.87
2019-01-18T08:40:22.865Z,26.07
2019-01-18T08:42:51.326Z,27.42
2019-01-18T08:45:26.014Z,26.35
2019-01-18T08:47:54.473Z,33.18
2019-01-18T08:50:23.015Z,33.05
2019-01-18T08:52:51.469Z,27.42
2019-01-18T08:55:19.947Z,27.00
2019-01-18T08:57:48.349Z,32.73
2019-01-18T09:00:19.632Z,28.80
2019-01-18T09:02:48.029Z,21.27
2019-01-18T09:05:19.363Z,23.47
2019-01-18T09:07:47.840Z,19.60
2019-01-18T09:10:18.674Z,24.40
2019-01-18T09:12:47.087Z,30.97
2019-01-18T09:15:15.620Z,36.80
2019-01-18T09:17:44.008Z,29.37
2019-01-18T09:20:17.841Z,32.13
2019-01-18T09:22:46.302Z,27.13
2019-01-18T09:25:14.995Z,36.80
2019-01-18T09:27:43.451Z,26.80
2019-01-18T09:30:17.678Z,25.90
2019-01-18T09:32:46.213Z,30.80
2019-01-18T09:35:16.951Z,37.28
2019-01-18T09:37:45.489Z,29.85
2019-01-18T09:40:17.144Z,30.40
2019-01-18T09:42:45.548Z,29.77
2019-01-18T09:45:14.733Z,27.42
2019-01-18T09:47:43.316Z,31.73
2019-01-18T09:50:14.786Z,20.48
2019-01-18T09:52:43.253Z,28.07
2019-01-18T09:55:11.924Z,32.65
2019-01-18T09:57:40.318Z,28.83
2019-01-18T10:00:17.848Z,24.25
2019-01-18T10:02:46.243Z,30.88
2019-01-18T10:05:14.701Z,31.20
2019-01-18T10:07:43.110Z,35.50
2019-01-18T10:10:15.098Z,42.48
2019-01-18T10:12:43.674Z,27.90
2019-01-18T10:15:17.931Z,31.23
2019-01-18T10:17:46.269Z,31.95
2019-01-18T10:20:17.211Z,27.50
2019-01-18T10:22:47.041Z,31.87
2019-01-18T10:25:16.988Z,41.42
2019-01-18T10:27:45.651Z,28.80
2019-01-18T10:30:17.207Z,29.52
2019-01-18T10:32:45.666Z,25.12
2019-01-18T10:35:14.338Z,27.32
2019-01-18T10:37:42.814Z,29.15
2019-01-18T10:40:15.831Z,28.73
2019-01-18T10:42:44.982Z,29.65
2019-01-18T10:45:15.107Z,35.65
2019-01-18T10:47:43.934Z,25.52
2019-01-18T10:50:21.080Z,39.83
2019-01-18T10:52:49.907Z,21.12
2019-01-18T10:55:18.331Z,23.62
2019-01-18T10:57:46.821Z,23.05
2019-01-18T11:00:23.319Z,25.57
2019-01-18T11:02:52.567Z,22.02
2019-01-18T11:05:22.195Z,21.60
2019-01-18T11:07:50.842Z,24.10
2019-01-18T11:10:19.303Z,26.35
2019-01-18T11:12:47.767Z,34.85
2019-01-18T11:15:22.313Z,27.98
2019-01-18T11:17:50.715Z,27.85
2019-01-18T11:20:22.179Z,21.07
2019-01-18T11:22:51.854Z,29.12
2019-01-18T11:25:20.257Z,25.95
2019-01-18T11:27:48.651Z,25.52
2019-01-18T11:30:17.490Z,24.50
2019-01-18T11:32:45.891Z,21.82
2019-01-18T11:35:15.333Z,18.70
2019-01-18T11:37:43.813Z,20.20
2019-01-18T11:40:15.595Z,20.43
2019-01-18T11:42:44.123Z,19.37
2019-01-18T11:45:13.538Z,34.98
2019-01-18T11:47:41.924Z,23.35
2019-01-18T11:50:18.582Z,24.75
2019-01-18T11:52:46.915Z,25.15
2019-01-18T11:55:15.305Z,29.27
2019-01-18T11:57:44.109Z,23.12
2019-01-18T12:00:18.247Z,30.15
2019-01-18T12:02:46.741Z,23.85
2019-01-18T12:05:15.259Z,24.60
2019-01-18T12:07:43.717Z,19.07
2019-01-18T12:10:18.043Z,28.77
2019-01-18T12:12:46.503Z,30.82
2019-01-18T12:15:15.340Z,28.30
2019-01-18T12:17:43.811Z,20.82
2019-01-18T12:20:18.195Z,19.30
2019-01-18T12:22:46.758Z,18.82
2019-01-18T12:25:15.294Z,24.80
2019-01-18T12:27:43.838Z,15.70
2019-01-18T12:30:20.969Z,27.25
2019-01-18T12:32:49.385Z,14.60
2019-01-18T12:35:17.781Z,19.87
2019-01-18T12:37:46.527Z,18.95
2019-01-18T12:40:15.309Z,21.07
2019-01-18T12:42:43.994Z,18.05
2019-01-18T12:45:15.040Z,20.45
2019-01-18T12:47:43.429Z,15.32
2019-01-18T12:50:17.860Z,17.52
2019-01-18T12:52:46.249Z,22.32
2019-01-18T12:55:15.005Z,22.32
2019-01-18T12:57:43.692Z,17.27
2019-01-18T13:00:29.062Z,34.30
2019-01-18T13:02:57.906Z,33.78
2019-01-18T13:05:38.622Z,39.65
2019-01-18T13:08:07.303Z,31.50
2019-01-18T13:10:36.010Z,37.48
2019-01-18T13:13:04.636Z,33.70
2019-01-18T13:15:39.125Z,31.97
2019-01-18T13:18:07.785Z,25.48
2019-01-18T13:20:36.187Z,25.15
2019-01-18T13:23:04.579Z,27.20
2019-01-18T13:25:32.984Z,32.35
2019-01-18T13:28:01.375Z,26.05
2019-01-18T13:30:29.767Z,32.93
2019-01-18T13:32:58.570Z,32.95
2019-01-18T13:35:27.701Z,28.23
2019-01-18T13:37:56.352Z,24.18
2019-01-18T13:40:24.809Z,23.98
2019-01-18T13:42:53.516Z,36.73
2019-01-18T13:45:24.449Z,24.50
2019-01-18T13:47:52.512Z,32.40
2019-01-18T13:50:21.403Z,27.45
2019-01-18T13:52:50.011Z,24.50
2019-01-18T13:55:30.079Z,28.80
2019-01-18T13:57:58.464Z,33.40
2019-01-18T14:00:26.860Z,24.43
2019-01-18T14:02:55.257Z,32.38
2019-01-18T14:05:23.644Z,28.30
2019-01-18T14:07:53.538Z,26.05
2019-01-18T14:10:24.808Z,33.50
2019-01-18T14:12:53.534Z,30.90
2019-01-18T14:15:23.713Z,25.50
2019-01-18T14:17:52.104Z,25.17
2019-01-18T14:20:22.793Z,28.52
2019-01-18T14:22:52.462Z,32.90
2019-01-18T14:25:20.916Z,29.30
2019-01-18T14:27:49.563Z,33.60
2019-01-18T14:30:28.578Z,31.05
2019-01-18T14:32:56.986Z,25.85
2019-01-18T14:35:26.846Z,37.93
2019-01-18T14:37:55.258Z,40.48
2019-01-18T14:40:23.724Z,29.77
2019-01-18T14:42:53.754Z,36.35
2019-01-18T14:45:27.883Z,33.08
2019-01-18T14:47:56.278Z,35.45
2019-01-18T14:50:25.004Z,43.42
2019-01-18T14:52:53.464Z,43.33
2019-01-18T14:55:21.932Z,37.05
2019-01-18T14:57:50.403Z,36.60
2019-01-18T15:00:24.560Z,31.90
2019-01-18T15:02:53.348Z,42.70
2019-01-18T15:05:21.742Z,42.33
2019-01-18T15:07:50.149Z,30.02
2019-01-18T15:10:20.887Z,36.88
2019-01-18T15:12:51.769Z,40.35
2019-01-18T15:15:20.771Z,36.73
2019-01-18T15:17:50.704Z,37.10
2019-01-18T15:20:21.852Z,29.27
2019-01-18T15:22:50.309Z,35.20
2019-01-18T15:25:19.060Z,31.15
2019-01-18T15:27:47.597Z,29.10
2019-01-18T15:30:24.848Z,36.90
2019-01-18T15:32:53.382Z,41.15
2019-01-18T15:35:27.874Z,41.95
2019-01-18T15:37:56.347Z,31.27
2019-01-18T15:40:27.618Z,35.20
2019-01-18T15:42:57.966Z,35.03
2019-01-18T15:45:26.613Z,35.25
2019-01-18T15:47:55.092Z,46.73
2019-01-18T15:50:25.938Z,44.53
2019-01-18T15:52:54.474Z,47.80
2019-01-18T15:55:23.518Z,41.70
2019-01-18T15:57:52.047Z,34.67
2019-01-18T16:00:23.512Z,38.40
2019-01-18T16:02:52.241Z,27.35
2019-01-18T16:05:20.641Z,37.98
2019-01-18T16:07:49.038Z,35.68
2019-01-18T16:10:17.810Z,50.28
2019-01-18T16:12:46.218Z,42.88
2019-01-18T16:15:20.360Z,43.33
2019-01-18T16:17:49.968Z,49.55
2019-01-18T16:20:20.802Z,33.10
2019-01-18T16:22:50.214Z,37.75
2019-01-18T16:25:27.222Z,41.73
2019-01-18T16:27:55.755Z,42.38
2019-01-18T16:30:25.701Z,46.23
2019-01-18T16:32:56.375Z,41.25
2019-01-18T16:35:24.842Z,48.10
2019-01-18T16:37:53.482Z,39.85
2019-01-18T16:40:35.388Z,47.53
2019-01-18T16:43:28.093Z,43.08
2019-01-18T16:45:56.657Z,43.48
2019-01-18T16:48:25.061Z,43.42
2019-01-18T16:50:53.455Z,56.77
2019-01-18T16:53:21.841Z,42.62
2019-01-18T16:55:50.249Z,41.92
2019-01-18T16:58:18.639Z,57.13
2019-01-18T17:00:56.153Z,51.40
2019-01-18T17:03:30.323Z,52.67
2019-01-18T17:05:54.683Z,46.08
2019-01-18T17:08:23.078Z,40.80
2019-01-18T17:10:51.706Z,45.33
2019-01-18T17:13:20.647Z,40.45
2019-01-18T17:15:49.042Z,47.62
2019-01-18T17:18:17.444Z,41.75
2019-01-18T17:20:47.374Z,53.85
2019-01-18T17:23:15.768Z,49.23
2019-01-18T17:25:44.179Z,48.33
2019-01-18T17:28:12.566Z,48.33
2019-01-18T17:30:41.268Z,58.60
2019-01-18T17:33:09.661Z,51.28
2019-01-18T17:35:43.759Z,53.50
2019-01-18T17:38:23.814Z,56.98
2019-01-18T17:40:55.271Z,55.30
2019-01-18T17:43:32.313Z,55.67
2019-01-18T17:46:18.871Z,52.35
2019-01-18T17:48:56.148Z,48.35
2019-01-18T17:51:36.989Z,52.48
2019-01-18T17:54:08.441Z,66.95
2019-01-18T17:56:39.894Z,54.77
2019-01-18T17:59:23.332Z,50.63
2019-01-18T18:02:14.858Z,45.48
2019-01-18T18:05:01.875Z,48.55
2019-01-18T18:07:36.318Z,52.17
2019-01-18T18:10:33.546Z,59.33
2019-01-18T18:13:16.685Z,43.05
2019-01-18T18:15:59.812Z,54.85
2019-01-18T18:18:31.272Z,51.98
2019-01-18T18:21:20.597Z,44.15
2019-01-18T18:24:04.088Z,58.33
2019-01-18T18:26:47.144Z,45.40
2019-01-18T18:29:42.601Z,48.83
2019-01-18T18:32:41.303Z,51.02
2019-01-18T18:35:28.002Z,51.85
2019-01-18T18:38:07.709Z,66.40
2019-01-18T18:40:50.997Z,46.85
2019-01-18T18:43:40.283Z,51.98
2019-01-18T18:46:11.738Z,46.53
2019-01-18T18:48:51.939Z,56.68
2019-01-18T18:51:25.991Z,52.70
2019-01-18T18:54:26.369Z,43.08
2019-01-18T18:57:12.891Z,46.68
2019-01-18T19:00:05.832Z,46.83
2019-01-18T19:02:49.170Z,54.70
2019-01-18T19:05:32.422Z,48.63
2019-01-18T19:08:12.426Z,54.53
2019-01-18T19:10:55.732Z,42.00
2019-01-18T19:14:00.641Z,51.28
2019-01-18T19:16:34.931Z,43.70
2019-01-18T19:19:06.679Z,44.88
2019-01-18T19:21:53.595Z,36.03
2019-01-18T19:24:36.978Z,51.73
2019-01-18T19:27:08.423Z,49.25
2019-01-18T19:29:55.133Z,45.48
2019-01-18T19:32:51.415Z,44.40
2019-01-18T19:35:40.831Z,51.15
2019-01-18T19:38:29.297Z,53.25
2019-01-18T19:41:21.701Z,52.67
2019-01-18T19:43:56.159Z,53.20
2019-01-18T19:46:52.524Z,47.67
2019-01-18T19:49:33.315Z,47.80
2019-01-18T19:52:26.557Z,46.80
2019-01-18T19:55:29.856Z,51.77
2019-01-18T19:58:08.268Z,51.08
2019-01-18T20:01:00.617Z,47.48
2019-01-18T20:03:44.356Z,56.02
2019-01-18T20:06:30.627Z,51.98
2019-01-18T20:09:13.995Z,48.75
2019-01-18T20:11:48.364Z,47.67
2019-01-18T20:14:34.872Z,48.52
2019-01-18T20:17:06.334Z,61.50
2019-01-18T20:19:57.436Z,49.20
2019-01-18T20:22:28.897Z,47.70
2019-01-18T20:25:03.065Z,51.42
2019-01-18T20:27:55.657Z,53.20
2019-01-18T20:30:29.783Z,49.55
2019-01-18T20:33:01.238Z,51.98
2019-01-18T20:35:38.851Z,64.47
2019-01-18T20:38:13.404Z,57.65
2019-01-18T20:41:04.370Z,53.80
2019-01-18T20:43:36.132Z,48.45
2019-01-18T20:46:25.753Z,51.23
2019-01-18T20:49:05.827Z,56.37
2019-01-18T20:51:43.012Z,55.90
2019-01-18T20:54:20.621Z,51.08
2019-01-18T20:56:55.267Z,58.30
2019-01-18T20:59:35.093Z,48.42
2019-01-18T21:02:15.640Z,50.92
2019-01-18T21:04:49.910Z,51.58
2019-01-18T21:07:33.124Z,47.62
2019-01-18T21:10:22.725Z,47.40
2019-01-18T21:13:14.020Z,52.50
2019-01-18T21:16:00.016Z,49.67
2019-01-18T21:18:36.783Z,58.00
2019-01-18T21:21:23.590Z,59.53
2019-01-18T21:23:58.145Z,45.28
2019-01-18T21:26:38.334Z,46.30
2019-01-18T21:29:15.716Z,47.23
2019-01-18T21:32:11.587Z,43.10
2019-01-18T21:34:51.817Z,41.88
2019-01-18T21:37:45.927Z,42.03
2019-01-18T21:40:28.702Z,44.25
2019-01-18T21:43:08.976Z,46.13
2019-01-18T21:45:43.523Z,55.10
2019-01-18T21:48:21.043Z,46.85
2019-01-18T21:51:21.653Z,49.63
2019-01-18T21:54:02.210Z,53.58
2019-01-18T21:56:42.923Z,49.35
2019-01-18T21:59:14.384Z,53.80
2019-01-18T22:02:00.933Z,60.67
2019-01-18T22:04:40.521Z,53.63
2019-01-18T22:07:33.379Z,41.88
2019-01-18T22:10:13.971Z,48.30
2019-01-18T22:12:54.096Z,50.38
2019-01-18T22:15:55.530Z,54.67
2019-01-18T22:18:27.328Z,50.00
2019-01-18T22:21:16.581Z,58.28
2019-01-18T22:23:57.028Z,64.55
2019-01-18T22:26:40.512Z,58.38
2019-01-18T22:29:31.755Z,53.10
2019-01-18T22:32:18.649Z,54.20
2019-01-18T22:35:05.282Z,48.52
2019-01-18T22:37:39.316Z,54.53
2019-01-18T22:40:44.307Z,63.90
2019-01-18T22:43:25.079Z,53.92
2019-01-18T22:46:02.018Z,56.45
2019-01-18T22:48:39.766Z,63.13
2019-01-18T22:51:11.217Z,60.63
2019-01-18T22:53:51.629Z,52.27
2019-01-18T22:56:40.627Z,51.83
2019-01-18T22:59:42.619Z,54.15
2019-01-18T23:02:25.826Z,51.25
2019-01-18T23:05:00.240Z,55.15
2019-01-18T23:07:40.707Z,55.12
2019-01-18T23:10:20.760Z,62.40
2019-01-18T23:13:07.466Z,55.55
2019-01-18T23:16:04.831Z,55.00
2019-01-18T23:18:39.001Z,55.90
2019-01-18T23:21:19.299Z,56.95
2019-01-18T23:23:53.484Z,55.10
2019-01-18T23:26:41.961Z,54.98
2019-01-18T23:29:31.280Z,49.73
2019-01-18T23:32:25.824Z,50.88
2019-01-18T23:35:02.853Z,59.80
2019-01-18T23:37:36.489Z,50.10
2019-01-18T23:40:27.410Z,44.77
2019-01-18T23:43:07.758Z,42.23
2019-01-18T23:45:42.189Z,47.73
2019-01-18T23:48:25.658Z,47.48
2019-01-18T23:51:02.859Z,52.55
2019-01-18T23:53:34.321Z,56.30
2019-01-18T23:56:17.881Z,66.42
2019-01-18T23:58:49.352Z,45.58
